createdAt,value
2022-12-31T00:00:39.695Z,12.20
2022-12-31T00:03:08.414Z,12.20
2022-12-31T00:05:37.892Z,12.30
2022-12-31T00:08:07.228Z,12.30
2022-12-31T00:10:41.128Z,12.20
2022-12-31T00:13:09.962Z,12.20
2022-12-31T00:15:37.977Z,12.20
2022-12-31T00:18:06.010Z,12.20
2022-12-31T00:20:33.856Z,12.20
2022-12-31T00:23:01.778Z,12.20
2022-12-31T00:25:31.032Z,12.20
2022-12-31T00:27:58.876Z,12.20
2022-12-31T00:30:26.666Z,12.20
2022-12-31T00:32:54.525Z,12.20
2022-12-31T00:35:22.366Z,12.20
2022-12-31T00:37:52.737Z,12.20
2022-12-31T00:40:20.558Z,12.20
2022-12-31T00:42:49.746Z,12.20
2022-12-31T00:45:17.698Z,12.30
2022-12-31T00:47:45.530Z,12.20
2022-12-31T00:50:13.367Z,12.30
2022-12-31T00:52:41.224Z,12.30
2022-12-31T00:55:09.852Z,12.30
2022-12-31T00:57:37.665Z,12.30
2022-12-31T01:00:09.053Z,12.30
2022-12-31T01:02:37.097Z,12.30
2022-12-31T01:05:05.660Z,12.30
2022-12-31T01:07:33.506Z,12.40
2022-12-31T01:10:01.421Z,12.40
2022-12-31T01:12:29.229Z,12.40
2022-12-31T01:14:57.143Z,12.40
2022-12-31T01:17:26.313Z,12.40
2022-12-31T01:19:54.297Z,12.50
2022-12-31T01:22:22.163Z,12.40
2022-12-31T01:24:50.012Z,12.50
2022-12-31T01:27:17.840Z,12.50
2022-12-31T01:29:45.644Z,12.50
2022-12-31T01:32:13.437Z,12.50
2022-12-31T01:34:42.591Z,12.60
2022-12-31T01:37:10.435Z,12.60
2022-12-31T01:39:38.195Z,12.60
2022-12-31T01:42:06.285Z,12.60
2022-12-31T01:44:53.032Z,12.60
2022-12-31T01:47:28.837Z,12.70
2022-12-31T01:50:02.174Z,12.70
2022-12-31T01:52:33.998Z,12.70
2022-12-31T01:55:10.905Z,12.70
2022-12-31T01:57:39.211Z,12.70
2022-12-31T02:00:08.416Z,12.70
2022-12-31T02:02:36.522Z,12.70
2022-12-31T02:05:14.442Z,12.70
2022-12-31T02:07:42.817Z,12.80
2022-12-31T02:10:10.626Z,12.80
2022-12-31T02:12:38.517Z,12.80
2022-12-31T02:15:07.522Z,12.80
2022-12-31T02:17:41.550Z,12.80
2022-12-31T02:20:38.398Z,12.80
2022-12-31T02:23:43.867Z,12.80
2022-12-31T02:26:45.306Z,12.90
2022-12-31T02:29:28.906Z,12.90
2022-12-31T02:32:02.098Z,12.90
2022-12-31T02:34:34.729Z,12.90
2022-12-31T02:37:05.924Z,12.90
2022-12-31T02:39:34.423Z,12.90
2022-12-31T02:42:03.698Z,12.90
2022-12-31T02:44:33.564Z,13.00
2022-12-31T02:47:18.733Z,13.00
2022-12-31T02:49:59.802Z,13.00
2022-12-31T02:52:34.997Z,13.10
2022-12-31T02:55:10.919Z,13.10
2022-12-31T02:57:43.458Z,13.10
2022-12-31T03:00:32.199Z,13.10
2022-12-31T03:03:03.486Z,13.10
2022-12-31T03:05:33.065Z,13.10
2022-12-31T03:08:03.230Z,13.10
2022-12-31T03:10:31.058Z,13.10
2022-12-31T03:12:58.407Z,13.10
2022-12-31T03:15:28.538Z,13.20
2022-12-31T03:17:59.304Z,13.20
2022-12-31T03:20:49.548Z,13.20
2022-12-31T03:23:20.843Z,13.20
2022-12-31T03:25:47.895Z,13.30
2022-12-31T03:28:18.170Z,13.30
2022-12-31T03:30:48.477Z,13.30
2022-12-31T03:33:16.844Z,13.30
2022-12-31T03:35:47.344Z,13.30
2022-12-31T03:38:16.354Z,13.30
2022-12-31T03:40:46.028Z,13.30
2022-12-31T03:43:14.245Z,13.30
2022-12-31T03:45:42.523Z,13.40
2022-12-31T03:48:11.519Z,13.40
2022-12-31T03:50:39.354Z,13.40
2022-12-31T03:53:08.554Z,13.40
2022-12-31T03:55:36.603Z,13.40
2022-12-31T03:58:04.593Z,13.50
2022-12-31T04:00:32.480Z,13.50
2022-12-31T04:03:02.889Z,13.50
2022-12-31T04:05:31.218Z,13.50
2022-12-31T04:07:59.029Z,13.50
2022-12-31T04:10:28.263Z,13.50
2022-12-31T04:12:56.071Z,13.50
2022-12-31T04:15:23.911Z,13.60
2022-12-31T04:17:51.723Z,13.60
2022-12-31T04:20:19.772Z,13.60
2022-12-31T04:22:47.526Z,13.70
2022-12-31T04:25:15.512Z,13.70
2022-12-31T04:27:44.727Z,13.70
2022-12-31T04:30:14.066Z,13.70
2022-12-31T04:32:42.495Z,13.70
2022-12-31T04:35:11.138Z,13.70
2022-12-31T04:37:39.051Z,13.80
2022-12-31T04:40:08.192Z,13.80
2022-12-31T04:42:36.207Z,13.80
2022-12-31T04:45:06.307Z,13.80
2022-12-31T04:47:34.161Z,13.90
2022-12-31T04:50:02.002Z,13.90
2022-12-31T04:52:29.794Z,13.90
2022-12-31T04:54:57.818Z,13.90
2022-12-31T04:57:25.704Z,13.90
2022-12-31T04:59:53.546Z,13.90
2022-12-31T05:02:22.852Z,13.90
2022-12-31T05:04:50.911Z,14.00
2022-12-31T05:07:18.786Z,14.00
2022-12-31T05:09:46.616Z,14.00
2022-12-31T05:12:14.481Z,14.10
2022-12-31T05:14:42.275Z,14.00
2022-12-31T05:17:10.137Z,14.10
2022-12-31T05:19:39.267Z,14.00
2022-12-31T05:22:24.473Z,14.00
2022-12-31T05:24:52.316Z,14.00
2022-12-31T05:27:20.147Z,14.20
2022-12-31T05:29:47.966Z,14.10
2022-12-31T05:32:15.931Z,14.20
2022-12-31T05:34:45.394Z,14.10
2022-12-31T05:37:13.208Z,14.10
2022-12-31T05:39:41.031Z,14.10
2022-12-31T05:42:08.885Z,14.30
2022-12-31T05:44:36.739Z,14.20
2022-12-31T05:47:04.673Z,14.20
2022-12-31T05:49:32.532Z,14.20
2022-12-31T05:52:01.769Z,14.20
2022-12-31T05:54:29.627Z,14.20
2022-12-31T05:56:57.489Z,14.30
2022-12-31T05:59:25.637Z,14.30
2022-12-31T06:01:53.496Z,14.20
2022-12-31T06:04:21.711Z,16.40
2022-12-31T06:06:49.627Z,14.20
2022-12-31T06:09:20.114Z,14.30
2022-12-31T06:11:48.035Z,14.30
2022-12-31T06:14:16.303Z,14.30
2022-12-31T06:16:44.447Z,14.30
2022-12-31T06:19:12.239Z,14.30
2022-12-31T06:21:40.131Z,14.30
2022-12-31T06:24:08.703Z,14.30
2022-12-31T06:26:38.011Z,14.30
2022-12-31T06:29:06.127Z,14.30
2022-12-31T06:31:34.307Z,14.30
2022-12-31T06:34:02.184Z,14.30
2022-12-31T06:36:30.124Z,14.30
2022-12-31T06:38:57.888Z,14.30
2022-12-31T06:41:25.751Z,14.30
2022-12-31T06:43:54.980Z,14.30
2022-12-31T06:46:22.774Z,14.30
2022-12-31T06:48:52.661Z,14.30
2022-12-31T06:51:22.347Z,14.30
2022-12-31T06:53:51.631Z,14.30
2022-12-31T06:56:21.495Z,14.30
2022-12-31T06:58:50.491Z,14.30
2022-12-31T07:01:42.827Z,14.30
2022-12-31T07:04:40.515Z,14.30
2022-12-31T07:07:15.333Z,14.30
2022-12-31T07:09:51.154Z,14.30
2022-12-31T07:12:36.100Z,14.30
2022-12-31T07:15:12.516Z,14.20
2022-12-31T07:17:51.370Z,14.20
2022-12-31T07:20:20.703Z,14.20
2022-12-31T07:22:48.856Z,14.20
2022-12-31T07:25:19.345Z,14.30
2022-12-31T07:27:57.537Z,14.20
2022-12-31T07:30:35.065Z,14.20
2022-12-31T07:33:16.717Z,14.20
2022-12-31T07:35:54.768Z,14.20
2022-12-31T07:38:33.523Z,14.20
2022-12-31T07:41:10.718Z,14.20
2022-12-31T07:43:50.689Z,14.20
2022-12-31T07:46:28.986Z,14.20
2022-12-31T07:48:59.079Z,14.30
2022-12-31T07:51:27.783Z,14.20
2022-12-31T07:53:55.697Z,14.20
2022-12-31T07:56:23.589Z,14.20
2022-12-31T07:59:02.563Z,14.20
2022-12-31T08:01:41.713Z,14.20
2022-12-31T08:04:19.226Z,14.20
2022-12-31T08:06:54.859Z,14.30
2022-12-31T08:09:35.370Z,14.30
2022-12-31T08:12:03.941Z,14.30
2022-12-31T08:14:33.578Z,14.30
2022-12-31T08:17:01.943Z,14.30
2022-12-31T08:19:33.179Z,14.30
2022-12-31T08:22:14.217Z,14.30
2022-12-31T08:24:55.256Z,14.30
2022-12-31T08:27:31.827Z,14.30
2022-12-31T08:30:06.282Z,14.40
2022-12-31T08:32:40.366Z,14.30
2022-12-31T08:35:29.540Z,14.40
2022-12-31T08:38:02.385Z,14.40
2022-12-31T08:40:39.737Z,14.40
2022-12-31T08:43:31.258Z,14.40
2022-12-31T08:46:00.890Z,14.50
2022-12-31T08:48:35.624Z,14.50
2022-12-31T08:51:05.552Z,14.50
2022-12-31T08:53:34.946Z,14.50
2022-12-31T08:56:10.399Z,14.50
2022-12-31T08:58:49.575Z,14.60
2022-12-31T09:01:24.372Z,14.60
2022-12-31T09:04:18.374Z,14.60
2022-12-31T09:06:57.545Z,14.60
2022-12-31T09:09:33.103Z,14.60
2022-12-31T09:12:10.825Z,14.70
2022-12-31T09:14:48.273Z,14.70
2022-12-31T09:17:38.425Z,14.70
2022-12-31T09:20:07.786Z,14.70
2022-12-31T09:22:37.261Z,14.70
2022-12-31T09:25:05.738Z,14.80
2022-12-31T09:27:41.556Z,14.80
2022-12-31T09:30:12.889Z,14.80
2022-12-31T09:32:48.445Z,14.80
2022-12-31T09:35:26.531Z,14.80
2022-12-31T09:38:07.937Z,14.90
2022-12-31T09:41:07.499Z,14.90
2022-12-31T09:44:10.102Z,14.90
2022-12-31T09:47:15.968Z,15.00
2022-12-31T09:50:16.015Z,15.00
2022-12-31T09:53:02.411Z,15.10
2022-12-31T09:55:38.397Z,15.10
2022-12-31T09:58:25.733Z,15.10
2022-12-31T10:00:59.089Z,15.10
2022-12-31T10:03:41.677Z,15.20
2022-12-31T10:06:29.271Z,15.20
2022-12-31T10:09:28.174Z,15.20
2022-12-31T10:12:24.449Z,15.30
2022-12-31T10:15:15.391Z,15.30
2022-12-31T10:17:55.647Z,15.40
2022-12-31T10:20:44.940Z,15.40
2022-12-31T10:23:43.155Z,15.40
2022-12-31T10:26:26.339Z,15.50
2022-12-31T10:28:57.165Z,15.50
2022-12-31T10:31:39.576Z,15.50
2022-12-31T10:34:16.823Z,15.60
2022-12-31T10:37:05.033Z,15.60
2022-12-31T10:39:45.517Z,15.60
2022-12-31T10:42:39.299Z,15.70
2022-12-31T10:45:38.236Z,15.70
2022-12-31T10:48:36.021Z,15.70
2022-12-31T10:51:45.339Z,15.70
2022-12-31T10:54:43.951Z,15.70
2022-12-31T10:57:56.260Z,15.80
2022-12-31T11:00:31.783Z,15.80
2022-12-31T11:03:37.353Z,15.80
2022-12-31T11:06:38.602Z,15.80
2022-12-31T11:09:38.299Z,15.90
2022-12-31T11:12:16.308Z,15.90
2022-12-31T11:14:57.240Z,15.90
2022-12-31T11:17:40.969Z,15.90
2022-12-31T11:20:44.653Z,16.00
2022-12-31T11:23:27.068Z,16.00
2022-12-31T11:26:03.045Z,16.00
2022-12-31T11:28:45.144Z,16.00
2022-12-31T11:31:24.185Z,16.10
2022-12-31T11:34:10.659Z,16.10
2022-12-31T11:36:46.149Z,16.10
2022-12-31T11:39:31.399Z,16.20
2022-12-31T11:42:12.841Z,16.20
2022-12-31T11:44:46.073Z,16.20
2022-12-31T11:47:44.669Z,16.20
2022-12-31T11:50:43.515Z,16.30
2022-12-31T11:53:25.897Z,16.30
2022-12-31T11:56:06.558Z,16.30
2022-12-31T11:58:34.718Z,16.40
2022-12-31T12:01:10.251Z,16.40
2022-12-31T12:03:42.642Z,16.40
2022-12-31T12:06:15.066Z,16.40
2022-12-31T12:08:43.899Z,16.50
2022-12-31T12:11:19.819Z,16.50
2022-12-31T12:13:47.732Z,16.50
2022-12-31T12:16:16.243Z,16.50
2022-12-31T12:18:48.183Z,16.60
2022-12-31T12:21:19.590Z,16.60
2022-12-31T12:23:57.800Z,16.60
2022-12-31T12:26:35.281Z,16.70
2022-12-31T12:29:11.302Z,16.70
2022-12-31T12:31:39.804Z,16.70
2022-12-31T12:34:22.026Z,16.70
2022-12-31T12:36:51.484Z,16.80
2022-12-31T12:39:22.568Z,16.70
2022-12-31T12:42:00.605Z,16.80
2022-12-31T12:44:28.725Z,16.80
2022-12-31T12:46:57.130Z,16.80
2022-12-31T12:49:27.841Z,16.80
2022-12-31T12:52:10.031Z,16.90
2022-12-31T12:54:55.089Z,16.90
2022-12-31T12:57:32.442Z,16.90
2022-12-31T13:00:19.363Z,16.90
2022-12-31T13:03:21.658Z,16.90
2022-12-31T13:05:58.803Z,16.90
2022-12-31T13:08:43.039Z,17.00
2022-12-31T13:11:25.833Z,17.00
2022-12-31T13:14:01.293Z,16.90
2022-12-31T13:16:36.670Z,17.00
2022-12-31T13:19:12.380Z,17.00
2022-12-31T13:21:54.680Z,17.00
2022-12-31T13:24:42.056Z,17.00
2022-12-31T13:27:26.080Z,17.00
2022-12-31T13:29:57.341Z,17.00
2022-12-31T13:32:33.898Z,17.00
2022-12-31T13:35:16.365Z,17.00
2022-12-31T13:37:44.960Z,17.00
2022-12-31T13:40:24.848Z,17.00
2022-12-31T13:43:00.717Z,17.00
2022-12-31T13:45:33.774Z,17.00
2022-12-31T13:48:06.763Z,17.00
2022-12-31T13:50:38.937Z,17.00
2022-12-31T13:53:14.910Z,17.00
2022-12-31T13:55:45.787Z,17.00
2022-12-31T13:58:23.611Z,17.00
2022-12-31T14:00:58.885Z,17.10
2022-12-31T14:03:39.491Z,17.00
2022-12-31T14:06:12.324Z,17.00
2022-12-31T14:08:40.253Z,17.00
2022-12-31T14:11:19.843Z,17.00
2022-12-31T14:14:03.083Z,17.00
2022-12-31T14:16:38.696Z,17.00
2022-12-31T14:19:15.337Z,17.00
2022-12-31T14:21:49.007Z,17.00
2022-12-31T14:24:27.201Z,17.00
2022-12-31T14:26:59.557Z,17.00
2022-12-31T14:29:34.014Z,17.00
2022-12-31T14:32:17.525Z,17.00
2022-12-31T14:34:55.031Z,17.00
2022-12-31T14:37:34.908Z,17.00
2022-12-31T14:40:17.675Z,17.00
2022-12-31T14:42:53.946Z,16.90
2022-12-31T14:45:33.571Z,17.00
2022-12-31T14:48:10.940Z,17.00
2022-12-31T14:50:39.159Z,16.90
2022-12-31T14:53:18.430Z,16.90
2022-12-31T14:55:57.103Z,16.90
2022-12-31T14:58:30.914Z,16.90
2022-12-31T15:01:03.146Z,16.90
2022-12-31T15:03:42.989Z,16.80
2022-12-31T15:06:45.851Z,16.80
2022-12-31T15:09:24.172Z,16.80
2022-12-31T15:12:11.784Z,16.70
2022-12-31T15:15:04.995Z,16.70
2022-12-31T15:17:43.940Z,16.70
2022-12-31T15:20:42.907Z,16.60
2022-12-31T15:23:15.600Z,16.60
2022-12-31T15:25:48.687Z,16.60
2022-12-31T15:28:35.729Z,16.50
2022-12-31T15:31:11.724Z,16.50
2022-12-31T15:33:56.413Z,16.50
2022-12-31T15:36:26.009Z,16.50
2022-12-31T15:39:22.638Z,16.40
2022-12-31T15:42:35.723Z,16.40
2022-12-31T15:44:49.120Z,16.30
2022-12-31T15:47:24.784Z,16.30
2022-12-31T15:49:55.575Z,16.30
2022-12-31T15:52:27.279Z,16.30
2022-12-31T15:54:57.031Z,16.30
2022-12-31T15:57:33.274Z,16.30
2022-12-31T16:00:02.384Z,16.30
2022-12-31T16:02:30.405Z,16.30
2022-12-31T16:04:59.952Z,16.30
2022-12-31T16:07:29.850Z,16.30
2022-12-31T16:10:00.506Z,16.30
2022-12-31T16:12:35.167Z,16.30
2022-12-31T16:15:06.812Z,16.30
2022-12-31T16:17:36.538Z,16.30
2022-12-31T16:20:25.236Z,16.20
2022-12-31T16:22:56.201Z,16.20
2022-12-31T16:25:33.724Z,16.20
2022-12-31T16:28:03.661Z,16.20
2022-12-31T16:30:33.028Z,16.20
2022-12-31T16:33:02.980Z,16.10
2022-12-31T16:35:33.942Z,16.10
2022-12-31T16:38:12.496Z,16.10
2022-12-31T16:40:41.414Z,16.00
2022-12-31T16:43:27.477Z,16.00
2022-12-31T16:45:58.067Z,16.00
2022-12-31T16:48:26.499Z,16.00
2022-12-31T16:50:57.379Z,16.00
2022-12-31T16:53:29.993Z,15.90
2022-12-31T16:56:01.436Z,15.90
2022-12-31T16:58:31.819Z,15.90
2022-12-31T17:01:08.333Z,15.90
2022-12-31T17:03:46.348Z,15.80
2022-12-31T17:06:16.992Z,15.80
2022-12-31T17:08:48.682Z,15.80
2022-12-31T17:11:29.600Z,15.70
2022-12-31T17:13:59.558Z,15.70
2022-12-31T17:16:28.485Z,15.70
2022-12-31T17:18:56.418Z,15.60
2022-12-31T17:21:29.507Z,15.60
2022-12-31T17:24:01.455Z,15.60
2022-12-31T17:26:32.084Z,15.60
2022-12-31T17:29:01.202Z,15.60
2022-12-31T17:31:35.113Z,15.50
2022-12-31T17:34:22.456Z,15.50
2022-12-31T17:36:59.936Z,15.50
2022-12-31T17:39:39.753Z,15.50
2022-12-31T17:42:10.828Z,15.50
2022-12-31T17:44:40.205Z,15.40
2022-12-31T17:47:13.861Z,15.40
2022-12-31T17:49:44.778Z,15.40
2022-12-31T17:52:15.991Z,15.40
2022-12-31T17:54:44.020Z,15.40
2022-12-31T17:57:24.454Z,15.40
2022-12-31T17:59:52.483Z,15.40
2022-12-31T18:02:20.664Z,15.40
2022-12-31T18:04:48.645Z,15.40
2022-12-31T18:07:17.814Z,15.30
2022-12-31T18:09:45.608Z,15.30
2022-12-31T18:12:15.710Z,15.30
2022-12-31T18:14:45.418Z,15.20
2022-12-31T18:17:16.263Z,15.20
2022-12-31T18:22:33.273Z,15.10
2022-12-31T18:25:01.187Z,15.10
2022-12-31T18:27:30.594Z,15.10
2022-12-31T18:30:04.292Z,15.00
2022-12-31T18:32:34.177Z,15.00
2022-12-31T18:35:02.986Z,15.00
2022-12-31T18:37:31.016Z,15.00
2022-12-31T18:40:02.442Z,15.00
2022-12-31T18:42:30.664Z,15.00
2022-12-31T18:44:58.647Z,15.00
2022-12-31T18:47:26.575Z,15.00
2022-12-31T18:49:54.819Z,15.00
2022-12-31T18:52:24.964Z,15.00
2022-12-31T18:54:52.836Z,15.00
2022-12-31T18:57:22.130Z,15.00
2022-12-31T18:59:50.088Z,15.00
2022-12-31T19:02:20.972Z,15.00
2022-12-31T19:04:49.078Z,15.00
2022-12-31T19:07:16.931Z,15.00
2022-12-31T19:09:46.397Z,15.00
2022-12-31T19:12:15.759Z,15.00
2022-12-31T19:14:45.670Z,15.00
2022-12-31T19:17:13.560Z,14.90
2022-12-31T19:19:41.441Z,14.90
2022-12-31T19:22:14.686Z,14.90
2022-12-31T19:24:42.545Z,14.90
2022-12-31T19:27:11.066Z,14.90
2022-12-31T19:29:39.010Z,14.90
2022-12-31T19:32:08.466Z,14.90
2022-12-31T19:34:36.367Z,14.90
2022-12-31T19:37:04.192Z,14.90
2022-12-31T19:39:32.046Z,14.90
2022-12-31T19:41:59.979Z,14.90
2022-12-31T19:44:27.923Z,14.80
2022-12-31T19:46:55.757Z,14.70
2022-12-31T19:49:24.934Z,14.60
2022-12-31T19:51:52.754Z,14.60
2022-12-31T19:54:20.570Z,14.50
2022-12-31T19:56:48.410Z,14.50
2022-12-31T19:59:16.176Z,14.40
2022-12-31T20:01:44.053Z,14.40
2022-12-31T20:04:11.960Z,14.30
2022-12-31T20:06:41.155Z,14.30
2022-12-31T20:09:09.042Z,14.30
2022-12-31T20:11:36.889Z,14.20
2022-12-31T20:14:04.659Z,14.20
2022-12-31T20:16:34.206Z,14.20
2022-12-31T20:19:02.188Z,14.10
2022-12-31T20:21:30.728Z,14.10
2022-12-31T20:23:59.821Z,14.10
2022-12-31T20:26:27.733Z,14.10
2022-12-31T20:28:55.627Z,14.00
2022-12-31T20:31:26.250Z,14.00
2022-12-31T20:33:54.904Z,14.00
2022-12-31T20:36:23.868Z,14.00
2022-12-31T20:38:51.955Z,13.90
2022-12-31T20:41:23.183Z,13.90
2022-12-31T20:43:51.619Z,13.90
2022-12-31T20:46:21.532Z,13.80
2022-12-31T20:48:50.939Z,13.80
2022-12-31T20:51:19.729Z,13.80
2022-12-31T20:53:48.950Z,13.70
2022-12-31T20:56:17.661Z,13.70
2022-12-31T20:58:46.966Z,13.70
2022-12-31T21:01:15.744Z,13.70
2022-12-31T21:06:34.728Z,13.60
2022-12-31T21:09:04.846Z,13.60
2022-12-31T21:11:49.923Z,13.50
2022-12-31T21:14:19.154Z,13.50
2022-12-31T21:16:47.092Z,13.50
2022-12-31T21:19:14.912Z,13.40
2022-12-31T21:21:42.834Z,13.40
2022-12-31T21:24:11.015Z,13.40
2022-12-31T21:26:38.839Z,13.30
2022-12-31T21:29:06.685Z,13.30
2022-12-31T21:31:35.861Z,13.30
2022-12-31T21:34:03.738Z,13.30
2022-12-31T21:36:31.498Z,13.20
2022-12-31T21:38:59.408Z,13.20
2022-12-31T21:41:44.495Z,13.20
2022-12-31T21:44:12.283Z,13.10
2022-12-31T21:47:00.942Z,13.10
2022-12-31T21:49:29.431Z,13.10
2022-12-31T21:52:14.794Z,13.00
2022-12-31T21:54:59.974Z,13.00
2022-12-31T21:57:27.813Z,12.90
2022-12-31T22:00:40.214Z,12.90
2022-12-31T22:03:20.667Z,12.80
2022-12-31T22:05:51.700Z,12.80
2022-12-31T22:08:20.302Z,12.80
2022-12-31T22:10:52.400Z,12.70
2022-12-31T22:13:20.953Z,12.70
2022-12-31T22:15:52.947Z,12.70
2022-12-31T22:18:22.651Z,12.70
2022-12-31T22:20:50.528Z,12.60
2022-12-31T22:23:18.306Z,12.60
2022-12-31T22:25:46.107Z,12.50
2022-12-31T22:31:05.850Z,12.50
2022-12-31T22:33:35.084Z,12.40
2022-12-31T22:36:04.473Z,12.40
2022-12-31T22:38:35.373Z,12.30
2022-12-31T22:41:07.720Z,12.30
2022-12-31T22:43:37.648Z,12.30
2022-12-31T22:46:13.917Z,12.20
2022-12-31T22:48:43.365Z,12.20
2022-12-31T22:51:13.049Z,12.20
2022-12-31T22:53:41.390Z,12.10
2022-12-31T22:56:10.697Z,12.10
2022-12-31T22:58:38.684Z,12.00
2022-12-31T23:01:07.234Z,12.00
2022-12-31T23:03:35.204Z,12.00
2022-12-31T23:06:04.527Z,11.90
2022-12-31T23:08:32.387Z,11.90
2022-12-31T23:11:00.021Z,11.90
2022-12-31T23:13:50.529Z,11.80
2022-12-31T23:16:37.472Z,11.80
2022-12-31T23:19:23.280Z,11.80
2022-12-31T23:22:10.943Z,11.70
2022-12-31T23:24:39.477Z,11.70
2022-12-31T23:27:08.359Z,11.70
2022-12-31T23:29:45.577Z,11.70
2022-12-31T23:32:15.311Z,11.60
2022-12-31T23:34:44.604Z,11.60
2022-12-31T23:37:14.127Z,11.60
2022-12-31T23:39:42.321Z,11.60
2022-12-31T23:42:12.668Z,11.60
2022-12-31T23:44:40.587Z,11.60
2022-12-31T23:47:08.575Z,11.50
2022-12-31T23:49:37.144Z,11.50
2022-12-31T23:52:05.249Z,11.50
2022-12-31T23:54:35.029Z,11.50
2022-12-31T23:57:03.030Z,11.50
2022-12-31T23:59:30.818Z,11.50
